Time,TemperatureF,DewpointF,PressureIn,WindDirection,WindDirectionDegrees,WindSpeedMPH,WindSpeedGustMPH,Humidity,HourlyPrecipIn,Conditions,Clouds,dailyrainin,SolarRadiationWatts/m^2,SoftwareType,DateUTC
2013-05-28 00:03:00,53.0,49.0,-100.00,NE,42,2.0,13.0,87,0.00,,,0.37,0.000000,,2013-05-28 10:03:00,
2013-05-28 00:12:00,53.0,49.0,-100.00,NE,42,2.0,13.0,87,0.00,,,0.37,0.000000,,2013-05-28 10:12:00,
2013-05-28 00:22:00,53.0,49.0,-100.00,NE,42,2.0,13.0,87,0.00,,,0.37,0.000000,,2013-05-28 10:22:00,
2013-05-28 00:32:00,53.0,49.0,-100.00,NE,42,2.0,13.0,87,0.00,,,0.37,0.000000,,2013-05-28 10:32:00,
2013-05-28 00:53:00,53.0,49.0,-100.00,ENE,78,0.0,7.0,86,0.00,,,0.37,0.000000,,2013-05-28 10:53:00,
2013-05-28 01:02:00,53.0,49.0,-100.00,ENE,78,0.0,7.0,86,0.00,,,0.37,0.000000,,2013-05-28 11:02:00,
2013-05-28 01:11:00,53.0,49.0,-100.00,ENE,78,0.0,7.0,86,0.00,,,0.37,0.000000,,2013-05-28 11:11:00,
2013-05-28 01:22:00,53.0,49.0,-100.00,ENE,78,0.0,7.0,86,0.00,,,0.37,0.000000,,2013-05-28 11:22:00,
2013-05-28 01:32:00,53.0,49.0,-100.00,ENE,78,0.0,7.0,86,0.00,,,0.37,0.000000,,2013-05-28 11:32:00,
2013-05-28 01:52:00,51.0,47.0,-100.00,ENE,73,2.0,5.0,86,0.00,,,0.37,0.000000,,2013-05-28 11:52:00,
2013-05-28 02:01:00,51.0,47.0,-100.00,ENE,73,2.0,5.0,86,0.00,,,0.37,0.000000,,2013-05-28 12:01:00,
2013-05-28 02:11:00,51.0,47.0,-100.00,ENE,73,2.0,5.0,86,0.00,,,0.37,0.000000,,2013-05-28 12:11:00,
2013-05-28 02:21:00,51.0,47.0,-100.00,ENE,73,2.0,5.0,86,0.00,,,0.37,0.000000,,2013-05-28 12:21:00,
2013-05-28 02:31:00,51.0,47.0,-100.00,ENE,73,2.0,5.0,86,0.00,,,0.37,0.000000,,2013-05-28 12:31:00,
2013-05-28 02:52:00,52.0,45.0,-100.00,NE,39,1.0,6.0,78,0.00,,,0.37,0.000000,,2013-05-28 12:52:00,
2013-05-28 03:01:00,52.0,45.0,-100.00,NE,39,1.0,6.0,78,0.00,,,0.37,0.000000,,2013-05-28 13:01:00,
2013-05-28 03:11:00,52.0,45.0,-100.00,NE,39,1.0,6.0,78,0.00,,,0.37,0.000000,,2013-05-28 13:11:00,
2013-05-28 03:21:00,52.0,45.0,-100.00,NE,39,1.0,6.0,78,0.00,,,0.37,0.000000,,2013-05-28 13:21:00,
2013-05-28 03:32:00,52.0,45.0,-100.00,NE,39,1.0,6.0,78,0.00,,,0.37,0.000000,,2013-05-28 13:32:00,
2013-05-28 03:52:00,51.0,50.0,-100.00,NNE,33,0.0,3.0,97,0.00,,,0.37,0.000000,,2013-05-28 13:52:00,
2013-05-28 04:01:00,51.0,50.0,-100.00,NNE,33,0.0,3.0,97,0.00,,,0.37,0.000000,,2013-05-28 14:01:00,
2013-05-28 04:11:00,51.0,50.0,-100.00,NNE,33,0.0,3.0,97,0.00,,,0.37,0.000000,,2013-05-28 14:11:00,
2013-05-28 04:21:00,51.0,50.0,-100.00,NNE,33,0.0,3.0,97,0.00,,,0.37,0.000000,,2013-05-28 14:21:00,
2013-05-28 04:32:00,51.0,50.0,-100.00,NNE,33,0.0,3.0,97,0.00,,,0.37,0.000000,,2013-05-28 14:32:00,
2013-05-28 04:52:00,52.0,46.0,-100.00,SSW,208,0.0,7.0,79,0.00,,,0.37,0.000000,,2013-05-28 14:52:00,
2013-05-28 05:01:00,52.0,46.0,-100.00,SSW,208,0.0,7.0,79,0.00,,,0.37,0.000000,,2013-05-28 15:01:00,
2013-05-28 05:11:00,52.0,46.0,-100.00,SSW,208,0.0,7.0,79,0.00,,,0.37,0.000000,,2013-05-28 15:11:00,
2013-05-28 05:21:00,52.0,46.0,-100.00,SSW,208,0.0,7.0,79,0.00,,,0.37,0.000000,,2013-05-28 15:21:00,
2013-05-28 05:32:00,52.0,46.0,-100.00,SSW,208,0.0,7.0,79,0.00,,,0.37,0.000000,,2013-05-28 15:32:00,
2013-05-28 05:53:00,53.0,44.0,-100.00,East,91,7.0,11.0,72,0.00,,,0.37,0.000000,,2013-05-28 15:53:00,
2013-05-28 06:03:00,53.0,44.0,-100.00,East,91,7.0,11.0,72,0.00,,,0.37,0.000000,,2013-05-28 16:03:00,
2013-05-28 06:12:00,53.0,44.0,-100.00,East,91,7.0,11.0,72,0.00,,,0.37,0.000000,,2013-05-28 16:12:00,
2013-05-28 06:22:00,53.0,44.0,-100.00,East,91,7.0,11.0,72,0.00,,,0.37,0.000000,,2013-05-28 16:22:00,
2013-05-28 06:32:00,53.0,44.0,-100.00,East,91,7.0,11.0,72,0.00,,,0.37,0.000000,,2013-05-28 16:32:00,
2013-05-28 06:52:00,54.0,46.0,-100.00,East,83,8.0,12.0,74,0.00,,,0.37,3.000000,,2013-05-28 16:52:00,
2013-05-28 07:02:00,54.0,46.0,-100.00,East,83,8.0,12.0,74,0.00,,,0.37,3.000000,,2013-05-28 17:02:00,
2013-05-28 07:12:00,54.0,46.0,-100.00,East,83,8.0,12.0,74,0.00,,,0.37,3.000000,,2013-05-28 17:12:00,
2013-05-28 07:22:00,54.0,46.0,-100.00,East,83,8.0,12.0,74,0.00,,,0.37,3.000000,,2013-05-28 17:22:00,
2013-05-28 07:32:00,54.0,46.0,-100.00,East,83,8.0,12.0,74,0.00,,,0.37,3.000000,,2013-05-28 17:32:00,
2013-05-28 07:52:00,63.0,51.0,-100.00,SW,230,0.0,11.0,64,0.00,,,0.37,133.000000,,2013-05-28 17:52:00,
2013-05-28 08:01:00,63.0,51.0,-100.00,SW,230,0.0,11.0,64,0.00,,,0.37,133.000000,,2013-05-28 18:01:00,
2013-05-28 08:11:00,63.0,51.0,-100.00,SW,230,0.0,11.0,64,0.00,,,0.37,133.000000,,2013-05-28 18:11:00,
2013-05-28 08:21:00,63.0,51.0,-100.00,SW,230,0.0,11.0,64,0.00,,,0.37,133.000000,,2013-05-28 18:21:00,
2013-05-28 08:32:00,63.0,51.0,-100.00,SW,230,0.0,11.0,64,0.00,,,0.37,133.000000,,2013-05-28 18:32:00,
2013-05-28 08:52:00,62.0,52.0,-100.00,SW,218,3.0,7.0,71,0.00,,,0.37,453.000000,,2013-05-28 18:52:00,
2013-05-28 09:01:00,62.0,52.0,-100.00,SW,218,3.0,7.0,71,0.00,,,0.37,453.000000,,2013-05-28 19:01:00,
2013-05-28 09:11:00,62.0,52.0,-100.00,SW,218,3.0,7.0,71,0.00,,,0.37,453.000000,,2013-05-28 19:11:00,
2013-05-28 09:21:00,62.0,52.0,-100.00,SW,218,3.0,7.0,71,0.00,,,0.37,453.000000,,2013-05-28 19:21:00,
2013-05-28 09:31:00,62.0,52.0,-100.00,SW,218,3.0,7.0,71,0.00,,,0.37,453.000000,,2013-05-28 19:31:00,
2013-05-28 09:52:00,61.0,55.0,-100.00,SSW,209,5.0,10.0,82,0.00,,,0.37,724.000000,,2013-05-28 19:52:00,
2013-05-28 10:01:00,61.0,55.0,-100.00,SSW,209,5.0,10.0,82,0.00,,,0.37,724.000000,,2013-05-28 20:01:00,
2013-05-28 10:11:00,61.0,55.0,-100.00,SSW,209,5.0,10.0,82,0.00,,,0.37,724.000000,,2013-05-28 20:11:00,
2013-05-28 10:22:00,61.0,55.0,-100.00,SSW,209,5.0,10.0,82,0.00,,,0.37,724.000000,,2013-05-28 20:22:00,
2013-05-28 10:32:00,61.0,55.0,-100.00,SSW,209,5.0,10.0,82,0.00,,,0.37,724.000000,,2013-05-28 20:32:00,
2013-05-28 10:33:00,60.0,55.0,-100.00,SW,214,9.0,15.0,85,0.00,,,0.37,473.000000,,2013-05-28 20:33:00,
2013-05-28 10:52:00,60.0,55.0,-100.00,SW,214,9.0,15.0,85,0.00,,,0.37,473.000000,,2013-05-28 20:52:00,
2013-05-28 11:01:00,60.0,55.0,-100.00,SW,214,9.0,15.0,85,0.00,,,0.37,473.000000,,2013-05-28 21:01:00,
2013-05-28 11:11:00,60.0,55.0,-100.00,SW,214,9.0,15.0,85,0.00,,,0.37,473.000000,,2013-05-28 21:11:00,
2013-05-28 11:21:00,60.0,55.0,-100.00,SW,214,9.0,15.0,85,0.00,,,0.37,473.000000,,2013-05-28 21:21:00,
2013-05-28 11:53:00,61.0,58.0,-100.00,WSW,240,6.0,13.0,90,0.00,,,0.37,486.000000,,2013-05-28 21:53:00,
2013-05-28 12:02:00,61.0,58.0,-100.00,WSW,240,6.0,13.0,90,0.00,,,0.37,486.000000,,2013-05-28 22:02:00,
2013-05-28 12:12:00,61.0,58.0,-100.00,WSW,240,6.0,13.0,90,0.00,,,0.37,486.000000,,2013-05-28 22:12:00,
2013-05-28 12:22:00,61.0,58.0,-100.00,WSW,240,6.0,13.0,90,0.00,,,0.37,486.000000,,2013-05-28 22:22:00,
2013-05-28 12:32:00,61.0,58.0,-100.00,WSW,240,6.0,13.0,90,0.00,,,0.37,486.000000,,2013-05-28 22:32:00,
2013-05-28 12:52:00,59.0,56.0,-100.00,WSW,250,4.0,10.0,90,0.00,,,0.37,416.000000,,2013-05-28 22:52:00,
2013-05-28 13:02:00,59.0,56.0,-100.00,WSW,250,4.0,10.0,90,0.00,,,0.37,416.000000,,2013-05-28 23:02:00,
2013-05-28 13:11:00,59.0,56.0,-100.00,WSW,250,4.0,10.0,90,0.00,,,0.37,416.000000,,2013-05-28 23:11:00,
2013-05-28 13:21:00,59.0,56.0,-100.00,WSW,250,4.0,10.0,90,0.00,,,0.37,416.000000,,2013-05-28 23:21:00,
2013-05-28 13:32:00,59.0,56.0,-100.00,WSW,250,4.0,10.0,90,0.00,,,0.37,416.000000,,2013-05-28 23:32:00,
2013-05-28 13:52:00,63.0,58.0,-100.00,SW,214,8.0,13.0,84,0.00,,,0.28,340.000000,,2013-05-28 23:52:00,
2013-05-28 14:02:00,63.0,58.0,-100.00,SW,214,8.0,13.0,84,0.00,,,0.28,340.000000,,2013-05-29 00:02:00,
2013-05-28 14:11:00,63.0,58.0,-100.00,SW,214,8.0,13.0,84,0.00,,,0.28,340.000000,,2013-05-29 00:11:00,
2013-05-28 14:21:00,63.0,58.0,-100.00,SW,214,8.0,13.0,84,0.00,,,0.28,340.000000,,2013-05-29 00:21:00,
2013-05-28 14:32:00,63.0,58.0,-100.00,SW,214,8.0,13.0,84,0.00,,,0.28,340.000000,,2013-05-29 00:32:00,
2013-05-28 14:52:00,63.0,59.0,-100.00,SW,233,5.0,14.0,87,0.00,,,0.24,531.000000,,2013-05-29 00:52:00,
2013-05-28 15:01:00,63.0,59.0,-100.00,SW,233,5.0,14.0,87,0.00,,,0.24,531.000000,,2013-05-29 01:01:00,
2013-05-28 15:11:00,63.0,59.0,-100.00,SW,233,5.0,14.0,87,0.00,,,0.24,531.000000,,2013-05-29 01:11:00,
2013-05-28 15:21:00,63.0,59.0,-100.00,SW,233,5.0,14.0,87,0.00,,,0.24,531.000000,,2013-05-29 01:21:00,
2013-05-28 15:32:00,63.0,59.0,-100.00,SW,233,5.0,14.0,87,0.00,,,0.24,531.000000,,2013-05-29 01:32:00,
2013-05-28 15:52:00,64.0,58.0,-100.00,SW,228,8.0,14.0,82,0.00,,,0.24,525.000000,,2013-05-29 01:52:00,
2013-05-28 16:02:00,64.0,58.0,-100.00,SW,228,8.0,14.0,82,0.00,,,0.24,525.000000,,2013-05-29 02:02:00,
2013-05-28 16:12:00,64.0,58.0,-100.00,SW,228,8.0,14.0,82,0.00,,,0.24,525.000000,,2013-05-29 02:12:00,
2013-05-28 16:21:00,64.0,58.0,-100.00,SW,228,8.0,14.0,82,0.00,,,0.24,525.000000,,2013-05-29 02:21:00,
2013-05-28 16:31:00,64.0,58.0,-100.00,SW,228,8.0,14.0,82,0.00,,,0.24,525.000000,,2013-05-29 02:31:00,
2013-05-28 16:33:00,61.0,57.0,-100.00,WSW,245,8.0,14.0,87,0.00,,,0.16,436.000000,,2013-05-29 02:33:00,
2013-05-28 16:52:00,61.0,57.0,-100.00,WSW,245,8.0,14.0,87,0.00,,,0.16,436.000000,,2013-05-29 02:52:00,
2013-05-28 17:01:00,61.0,57.0,-100.00,WSW,245,8.0,14.0,87,0.00,,,0.16,436.000000,,2013-05-29 03:01:00,
2013-05-28 17:11:00,61.0,57.0,-100.00,WSW,245,8.0,14.0,87,0.00,,,0.16,436.000000,,2013-05-29 03:11:00,
2013-05-28 17:21:00,61.0,57.0,-100.00,WSW,245,8.0,14.0,87,0.00,,,0.16,436.000000,,2013-05-29 03:21:00,
2013-05-28 17:33:00,60.0,58.0,-100.00,SSW,201,6.0,11.0,92,0.00,,,0.09,274.000000,,2013-05-29 03:33:00,
2013-05-28 17:53:00,60.0,58.0,-100.00,SSW,201,6.0,11.0,92,0.00,,,0.09,274.000000,,2013-05-29 03:53:00,
2013-05-28 18:02:00,60.0,58.0,-100.00,SSW,201,6.0,11.0,92,0.00,,,0.09,274.000000,,2013-05-29 04:02:00,
2013-05-28 18:12:00,60.0,58.0,-100.00,SSW,201,6.0,11.0,92,0.00,,,0.09,274.000000,,2013-05-29 04:12:00,
2013-05-28 18:23:00,60.0,58.0,-100.00,SSW,201,6.0,11.0,92,0.00,,,0.09,274.000000,,2013-05-29 04:23:00,
2013-05-28 18:52:00,57.0,56.0,-100.00,WSW,247,3.0,9.0,97,0.00,,,0.00,163.000000,,2013-05-29 04:52:00,
2013-05-28 19:02:00,57.0,56.0,-100.00,WSW,247,3.0,9.0,97,0.00,,,0.00,163.000000,,2013-05-29 05:02:00,
2013-05-28 19:12:00,57.0,56.0,-100.00,WSW,247,3.0,9.0,97,0.00,,,0.00,163.000000,,2013-05-29 05:12:00,
2013-05-28 19:22:00,57.0,56.0,-100.00,WSW,247,3.0,9.0,97,0.00,,,0.00,163.000000,,2013-05-29 05:22:00,
2013-05-28 19:32:00,57.0,56.0,-100.00,WSW,247,3.0,9.0,97,0.00,,,0.00,163.000000,,2013-05-29 05:32:00,
2013-05-28 19:52:00,57.0,57.0,-100.00,WNW,301,0.0,9.0,100,0.00,,,0.00,55.000000,,2013-05-29 05:52:00,
2013-05-28 20:01:00,57.0,57.0,-100.00,WNW,301,0.0,9.0,100,0.00,,,0.00,55.000000,,2013-05-29 06:01:00,
2013-05-28 20:11:00,57.0,57.0,-100.00,WNW,301,0.0,9.0,100,0.00,,,0.00,55.000000,,2013-05-29 06:11:00,
2013-05-28 20:21:00,57.0,57.0,-100.00,WNW,301,0.0,9.0,100,0.00,,,0.00,55.000000,,2013-05-29 06:21:00,
2013-05-28 20:31:00,57.0,57.0,-100.00,WNW,301,0.0,9.0,100,0.00,,,0.00,55.000000,,2013-05-29 06:31:00,
2013-05-28 20:33:00,56.0,56.0,-100.00,NE,40,0.0,5.0,100,0.00,,,0.00,0.000000,,2013-05-29 06:33:00,
2013-05-28 20:52:00,56.0,56.0,-100.00,NE,40,0.0,5.0,100,0.00,,,0.00,0.000000,,2013-05-29 06:52:00,
2013-05-28 21:01:00,56.0,56.0,-100.00,NE,40,0.0,5.0,100,0.00,,,0.00,0.000000,,2013-05-29 07:01:00,
2013-05-28 21:11:00,56.0,56.0,-100.00,NE,40,0.0,5.0,100,0.00,,,0.00,0.000000,,2013-05-29 07:11:00,
2013-05-28 21:21:00,56.0,56.0,-100.00,NE,40,0.0,5.0,100,0.00,,,0.00,0.000000,,2013-05-29 07:21:00,
2013-05-28 21:52:00,53.0,53.0,-100.00,ESE,123,0.0,3.0,100,0.00,,,0.00,0.000000,,2013-05-29 07:52:00,
2013-05-28 22:02:00,53.0,53.0,-100.00,ESE,123,0.0,3.0,100,0.00,,,0.00,0.000000,,2013-05-29 08:02:00,
2013-05-28 22:11:00,53.0,53.0,-100.00,ESE,123,0.0,3.0,100,0.00,,,0.00,0.000000,,2013-05-29 08:11:00,
2013-05-28 22:21:00,53.0,53.0,-100.00,ESE,123,0.0,3.0,100,0.00,,,0.00,0.000000,,2013-05-29 08:21:00,
2013-05-28 22:31:00,53.0,53.0,-100.00,ESE,123,0.0,3.0,100,0.00,,,0.00,0.000000,,2013-05-29 08:31:00,
2013-05-28 22:52:00,55.0,55.0,-100.00,ESE,118,0.0,5.0,100,0.00,,,0.00,0.000000,,2013-05-29 08:52:00,
2013-05-28 23:01:00,55.0,55.0,-100.00,ESE,118,0.0,5.0,100,0.00,,,0.00,0.000000,,2013-05-29 09:01:00,
2013-05-28 23:11:00,55.0,55.0,-100.00,ESE,118,0.0,5.0,100,0.00,,,0.00,0.000000,,2013-05-29 09:11:00,
2013-05-28 23:21:00,55.0,55.0,-100.00,ESE,118,0.0,5.0,100,0.00,,,0.00,0.000000,,2013-05-29 09:21:00,
2013-05-28 23:32:00,55.0,55.0,-100.00,ESE,118,0.0,5.0,100,0.00,,,0.00,0.000000,,2013-05-29 09:32:00,
2013-05-28 23:52:00,56.0,56.0,-100.00,ESE,122,0.0,2.0,100,0.00,,,0.00,0.000000,,2013-05-29 09:52:00,